Thornton, United Kingdom
Current Conditions -  °F | °C
As of 8:50 PM on Friday 31 Oct 2014 (Local Time) from EGPH Reporting Station
Broken Clouds Broken Clouds  
Wind Chill: 63°   Ceiling: 2400
Heat Index: 63°   Visibility: 6mi
Dew Point: 57°   Wind: 10mph
Humidity: 82%   Direction: 190°S
Pressure: 29.59"   Gusts: NA
Location:  56.17°N, 3.15°W
Report Text: EGPH 312050Z 19009KT 9999 BKN024 17/14 Q1002
Loading
Personal Weather Stations






























Interactive Weather Map
Tropical Storm Tracking
New forecast layout! Learn more

10-Day Weather Forecast

Advertisements
Track Severe Weather on mobile